Time;durP1;ratioP1;P1;durP2;ratioP2;P2;SDS_P1;SDS_P2;PMS_P1;PMS_P2;Temp;Humidity;BMP_temperature;BMP_pressure;BME280_temperature;BME280_humidity;BME280_pressure;Samples;Min_cycle;Max_cycle;Signal;HPM_P1;HPM_P2
2022/07/15 00:02:08;;;;;;;2.00;0.70;;;30.10;99.90;;;;;;4992563;28;20119;-47
2022/07/15 00:04:34;;;;;;;1.50;0.90;;;30.10;99.90;;;;;;4982920;28;20030;-58
2022/07/15 00:07:00;;;;;;;1.10;0.73;;;30.00;99.90;;;;;;4990455;28;20089;-46
2022/07/15 00:12:11;;;;;;;1.55;1.08;;;30.10;99.90;;;;;;4985770;28;20026;-47
2022/07/15 00:14:38;;;;;;;3.75;1.60;;;30.10;99.90;;;;;;4972883;28;20035;-48
2022/07/15 00:17:06;;;;;;;3.05;1.55;;;30.10;99.90;;;;;;4984584;28;20144;-47
2022/07/15 00:19:32;;;;;;;2.08;1.45;;;30.20;99.90;;;;;;4973166;28;20014;-47
2022/07/15 00:21:58;;;;;;;2.67;1.13;;;30.20;99.90;;;;;;4982888;28;20041;-47
2022/07/15 00:24:24;;;;;;;2.00;1.10;;;30.20;99.90;;;;;;4976416;28;20027;-47
2022/07/15 00:26:50;;;;;;;2.92;1.33;;;30.20;99.90;;;;;;4972488;28;20107;-47
2022/07/15 00:29:16;;;;;;;3.40;1.27;;;30.30;99.90;;;;;;4970815;28;20075;-47
2022/07/15 00:31:41;;;;;;;1.80;1.42;;;30.30;99.90;;;;;;4970991;28;20094;-47
2022/07/15 00:34:07;;;;;;;2.50;1.70;;;30.30;99.90;;;;;;4970682;28;20057;-47
2022/07/15 00:36:33;;;;;;;2.63;1.70;;;30.30;99.90;;;;;;4971443;28;20110;-47
2022/07/15 00:38:58;;;;;;;2.67;1.45;;;30.30;99.90;;;;;;4972577;28;20047;-47
2022/07/15 00:41:24;;;;;;;2.03;1.50;;;30.30;99.90;;;;;;4972937;28;20031;-47
2022/07/15 00:43:50;;;;;;;1.90;1.70;;;30.30;99.90;;;;;;4972551;28;20394;-47
2022/07/15 00:46:18;;;;;;;2.13;1.58;;;30.30;99.90;;;;;;4972621;28;20023;-46
2022/07/15 00:48:44;;;;;;;2.58;1.50;;;30.30;99.90;;;;;;4972611;28;20041;-47
2022/07/15 00:51:10;;;;;;;1.95;1.52;;;30.30;99.90;;;;;;4972808;28;20027;-47
2022/07/15 00:53:38;;;;;;;2.80;1.92;;;30.30;99.90;;;;;;4955160;28;20034;-47
2022/07/15 00:56:06;;;;;;;3.63;2.00;;;30.30;99.90;;;;;;4972370;28;20428;-47
2022/07/15 00:58:36;;;;;;;2.72;2.10;;;30.30;99.90;;;;;;4972508;28;20055;-47
2022/07/15 01:01:03;;;;;;;3.67;2.28;;;30.40;99.90;;;;;;5003263;23;20072;-51
2022/07/15 01:03:31;;;;;;;3.70;1.63;;;30.40;99.90;;;;;;4991786;28;20045;-51
2022/07/15 01:05:57;;;;;;;1.35;1.20;;;30.30;99.90;;;;;;4991968;28;20488;-48
2022/07/15 01:08:24;;;;;;;2.57;1.57;;;30.30;99.90;;;;;;4992103;28;20554;-51
2022/07/15 01:10:51;;;;;;;2.38;1.45;;;30.40;99.90;;;;;;4991788;28;20026;-50
2022/07/15 01:13:21;;;;;;;2.42;1.55;;;30.30;99.90;;;;;;4991725;28;20042;-50
2022/07/15 01:15:48;;;;;;;3.60;1.90;;;30.30;99.90;;;;;;4991674;28;20046;-50
2022/07/15 01:18:14;;;;;;;2.38;2.08;;;30.40;99.90;;;;;;4991796;28;20439;-50
2022/07/15 01:20:47;;;;;;;1.95;1.55;;;30.40;99.90;;;;;;4991676;28;20065;-49
2022/07/15 01:23:14;;;;;;;3.30;1.70;;;30.40;99.90;;;;;;4991603;28;20018;-50
2022/07/15 01:25:40;;;;;;;3.35;1.80;;;30.40;99.90;;;;;;4991510;28;20063;-51
2022/07/15 01:28:08;;;;;;;2.38;1.95;;;30.40;99.90;;;;;;4991451;28;20034;-50
2022/07/15 01:30:35;;;;;;;3.08;1.83;;;30.30;99.90;;;;;;4991613;28;20418;-50
2022/07/15 01:33:02;;;;;;;1.70;1.60;;;30.30;99.90;;;;;;4991504;28;20041;-50
2022/07/15 01:35:28;;;;;;;2.33;1.88;;;30.30;99.90;;;;;;4991686;28;20031;-50
2022/07/15 01:37:54;;;;;;;2.25;1.80;;;30.30;99.90;;;;;;4991401;28;20034;-49
2022/07/15 01:40:20;;;;;;;2.40;1.75;;;30.30;99.90;;;;;;4974208;28;20816;-50
2022/07/15 01:42:46;;;;;;;3.20;2.20;;;30.40;99.90;;;;;;4991501;28;20035;-50
2022/07/15 01:45:13;;;;;;;3.95;2.30;;;30.40;99.90;;;;;;4991570;28;20026;-50
2022/07/15 01:47:43;;;;;;;5.13;1.95;;;30.30;99.90;;;;;;4991900;28;20018;-51
2022/07/15 01:50:09;;;;;;;2.92;2.13;;;30.30;99.90;;;;;;4995506;28;20073;-50
2022/07/15 01:52:35;;;;;;;3.85;2.50;;;30.30;99.90;;;;;;4995239;28;20033;-50
2022/07/15 01:55:02;;;;;;;2.33;2.10;;;30.40;99.90;;;;;;4995245;28;20034;-50
2022/07/15 01:57:28;;;;;;;3.55;1.92;;;30.30;99.90;;;;;;4995446;28;20023;-49
2022/07/15 01:59:54;;;;;;;4.78;2.47;;;30.40;99.90;;;;;;5016134;23;20050;-42
2022/07/15 02:02:19;;;;;;;2.75;2.03;;;30.30;99.90;;;;;;5014528;28;20026;-42
2022/07/15 02:04:45;;;;;;;2.80;2.17;;;30.40;99.90;;;;;;5014554;28;20041;-41
2022/07/15 02:07:11;;;;;;;5.32;2.30;;;30.30;99.90;;;;;;5014333;28;20022;-41
2022/07/15 02:09:36;;;;;;;2.97;2.17;;;30.40;99.90;;;;;;5014397;28;20037;-42
2022/07/15 02:12:02;;;;;;;3.58;1.80;;;30.40;99.90;;;;;;5014275;28;20191;-41
2022/07/15 02:14:28;;;;;;;2.95;1.70;;;30.30;99.90;;;;;;5014254;28;20058;-42
2022/07/15 02:16:55;;;;;;;2.97;1.90;;;30.30;99.90;;;;;;5014120;28;20029;-42
2022/07/15 02:19:21;;;;;;;2.15;1.90;;;30.30;99.90;;;;;;5013959;28;20022;-41
2022/07/15 02:21:47;;;;;;;1.90;1.70;;;30.30;99.90;;;;;;4996748;28;20038;-41
2022/07/15 02:24:14;;;;;;;1.88;1.73;;;30.30;99.90;;;;;;5013869;28;20029;-41
2022/07/15 02:26:40;;;;;;;3.78;2.47;;;30.30;99.90;;;;;;5014011;28;20100;-41
2022/07/15 02:29:06;;;;;;;3.45;2.72;;;30.30;99.90;;;;;;5013892;28;20471;-41
2022/07/15 02:31:32;;;;;;;4.60;2.97;;;30.30;99.90;;;;;;5014058;28;20483;-42
2022/07/15 02:33:58;;;;;;;2.92;2.60;;;30.30;99.90;;;;;;5014099;28;20030;-41
2022/07/15 02:36:24;;;;;;;3.40;2.92;;;30.30;99.90;;;;;;4996543;28;20664;-41
2022/07/15 02:38:50;;;;;;;4.32;2.65;;;30.30;99.90;;;;;;5013870;28;20025;-41
2022/07/15 02:41:16;;;;;;;3.63;2.85;;;30.30;99.90;;;;;;5013790;28;20037;-41
2022/07/15 02:43:41;;;;;;;8.68;2.92;;;30.30;99.90;;;;;;5013580;28;20480;-41
2022/07/15 02:46:09;;;;;;;3.95;2.65;;;30.30;99.90;;;;;;5013615;28;20349;-41
2022/07/15 02:48:35;;;;;;;;;;;30.30;99.90;;;;;;5014062;28;20423;-41
2022/07/15 02:51:00;;;;;;;4.03;2.92;;;30.30;99.90;;;;;;4996061;28;19988;-41
2022/07/15 02:53:28;;;;;;;5.15;3.60;;;30.30;99.90;;;;;;5013227;28;20038;-41
2022/07/15 02:55:58;;;;;;;3.60;3.25;;;30.30;99.90;;;;;;5013357;28;20600;-41
2022/07/15 02:58:25;;;;;;;8.80;5.35;;;30.30;99.90;;;;;;5013407;28;20412;-41
2022/07/15 03:00:51;;;;;;;10.30;6.55;;;30.30;99.90;;;;;;5012580;28;20042;-41
2022/07/15 03:03:17;;;;;;;8.32;5.90;;;30.30;99.90;;;;;;5013359;28;20022;-41
2022/07/15 03:05:42;;;;;;;9.50;5.82;;;30.30;99.90;;;;;;5013367;28;20066;-41
2022/07/15 03:08:08;;;;;;;9.38;5.10;;;30.30;99.90;;;;;;5013316;28;20430;-41
2022/07/15 03:10:36;;;;;;;10.45;5.35;;;30.30;99.90;;;;;;5013425;28;20018;-42
2022/07/15 03:13:01;;;;;;;10.07;5.70;;;30.30;99.90;;;;;;4996043;28;20120;-41
2022/07/15 03:15:27;;;;;;;11.30;5.85;;;30.30;99.90;;;;;;5013051;28;20128;-41
2022/07/15 03:17:53;;;;;;;10.93;5.72;;;30.30;99.90;;;;;;5013034;28;20030;-41
2022/07/15 03:20:19;;;;;;;7.72;5.22;;;30.30;99.90;;;;;;5013066;28;20040;-41
2022/07/15 03:22:45;;;;;;;7.63;5.22;;;30.30;99.90;;;;;;5013094;28;20053;-42
2022/07/15 03:25:10;;;;;;;8.50;5.70;;;30.30;99.90;;;;;;5012832;28;20353;-42
2022/07/15 03:27:36;;;;;;;11.88;6.10;;;30.30;99.90;;;;;;4995337;28;20044;-41
2022/07/15 03:30:03;;;;;;;10.27;6.03;;;30.30;99.90;;;;;;5013027;28;20118;-41
2022/07/15 03:32:28;;;;;;;13.63;6.78;;;30.30;99.90;;;;;;4995315;28;20025;-41
2022/07/15 03:34:56;;;;;;;11.52;5.90;;;30.30;99.90;;;;;;5012762;28;20117;-41
2022/07/15 03:37:22;;;;;;;13.88;6.72;;;30.20;99.90;;;;;;5012782;28;20052;-41
2022/07/15 03:39:48;;;;;;;10.95;5.90;;;30.30;99.90;;;;;;5012754;28;20033;-41
2022/07/15 03:42:14;;;;;;;11.77;5.70;;;30.30;99.90;;;;;;5012916;28;20034;-41
2022/07/15 03:44:40;;;;;;;10.23;5.30;;;30.30;99.90;;;;;;5012368;28;20026;-41
2022/07/15 03:47:07;;;;;;;9.73;4.25;;;30.30;99.90;;;;;;5002327;28;20037;-41
2022/07/15 03:49:32;;;;;;;8.50;4.45;;;30.20;99.90;;;;;;4993184;28;20031;-41
2022/07/15 03:51:58;;;;;;;8.93;4.38;;;30.30;99.90;;;;;;4992881;28;20038;-41
2022/07/15 03:54:24;;;;;;;8.60;4.00;;;30.20;99.90;;;;;;4992951;28;20023;-41
2022/07/15 03:56:50;;;;;;;7.90;4.10;;;30.20;99.90;;;;;;4991437;28;20022;-42
2022/07/15 03:59:17;;;;;;;7.65;3.92;;;30.20;99.90;;;;;;5010170;23;20391;-49
2022/07/15 04:01:43;;;;;;;8.27;3.70;;;30.20;99.90;;;;;;5011953;28;20050;-46
2022/07/15 04:04:09;;;;;;;8.07;4.20;;;30.20;99.90;;;;;;5012367;28;20427;-46
2022/07/15 04:06:35;;;;;;;7.40;3.65;;;30.30;99.90;;;;;;5012490;28;20025;-46
2022/07/15 04:09:01;;;;;;;7.07;3.58;;;30.20;99.90;;;;;;5012371;28;20048;-46
2022/07/15 04:11:27;;;;;;;6.75;3.53;;;30.20;99.90;;;;;;5011833;28;20069;-46
2022/07/15 04:13:53;;;;;;;6.93;3.30;;;30.20;99.90;;;;;;5012174;28;20072;-46
2022/07/15 04:16:18;;;;;;;4.75;3.22;;;30.20;99.90;;;;;;5011951;28;20041;-46
2022/07/15 04:18:44;;;;;;;4.82;2.80;;;30.20;99.90;;;;;;5012153;28;20033;-46
2022/07/15 04:21:10;;;;;;;6.13;2.58;;;30.20;99.90;;;;;;5012026;28;20022;-46
2022/07/15 04:23:36;;;;;;;5.35;2.58;;;30.20;99.90;;;;;;5012185;28;20087;-46
2022/07/15 04:26:03;;;;;;;6.28;2.80;;;30.20;99.90;;;;;;5011898;28;20108;-46
2022/07/15 04:28:28;;;;;;;3.50;2.33;;;30.20;99.90;;;;;;5011915;28;20018;-46
2022/07/15 04:30:54;;;;;;;5.00;2.45;;;30.20;99.90;;;;;;5011780;28;20436;-46
2022/07/15 04:33:20;;;;;;;4.75;2.80;;;30.10;99.90;;;;;;5011874;28;20022;-46
2022/07/15 04:35:46;;;;;;;7.72;2.92;;;30.20;99.90;;;;;;5011961;28;20040;-46
2022/07/15 04:38:12;;;;;;;4.38;2.58;;;30.20;99.90;;;;;;5011731;28;20369;-46
2022/07/15 04:40:42;;;;;;;3.17;2.22;;;30.20;99.90;;;;;;5011834;28;20467;-46
2022/07/15 04:43:08;;;;;;;3.55;2.03;;;30.10;99.90;;;;;;5011993;28;20498;-46
2022/07/15 04:45:35;;;;;;;4.55;2.38;;;30.20;99.90;;;;;;5011630;28;20076;-46
2022/07/15 04:48:01;;;;;;;5.22;2.53;;;30.20;99.90;;;;;;5011761;28;20209;-46
2022/07/15 04:50:45;;;;;;;3.90;2.33;;;30.20;99.90;;;;;;5011522;28;20117;-46
2022/07/15 04:53:11;;;;;;;3.60;2.60;;;30.20;99.90;;;;;;4993778;28;20529;-46
2022/07/15 04:55:37;;;;;;;4.50;2.28;;;30.20;99.90;;;;;;5011536;28;20041;-46
2022/07/15 04:58:03;;;;;;;4.90;2.42;;;30.20;99.90;;;;;;5011496;28;20022;-47
2022/07/15 05:00:29;;;;;;;3.92;2.10;;;30.20;99.90;;;;;;5011147;28;20049;-46
2022/07/15 05:02:55;;;;;;;5.15;2.63;;;30.10;99.90;;;;;;5011375;28;20028;-47
2022/07/15 05:05:21;;;;;;;5.53;2.53;;;30.10;99.90;;;;;;5011305;28;20084;-47
2022/07/15 05:07:46;;;;;;;4.47;2.10;;;30.10;99.90;;;;;;5011325;28;20109;-47
2022/07/15 05:10:13;;;;;;;4.38;2.10;;;30.10;99.90;;;;;;5011386;28;20030;-47
2022/07/15 05:12:39;;;;;;;5.47;2.30;;;30.10;99.90;;;;;;5011442;28;20018;-47
2022/07/15 05:15:06;;;;;;;4.90;2.28;;;30.10;99.90;;;;;;5011233;28;20061;-47
2022/07/15 05:17:32;;;;;;;9.32;2.30;;;30.10;99.90;;;;;;5011318;28;21077;-47
2022/07/15 05:19:58;;;;;;;2.72;1.77;;;30.10;99.90;;;;;;5011335;28;20472;-47
2022/07/15 05:22:25;;;;;;;8.15;2.40;;;30.10;99.90;;;;;;5012333;28;20034;-47
2022/07/15 05:24:50;;;;;;;7.03;2.33;;;30.10;99.90;;;;;;5017814;28;20014;-46
2022/07/15 05:27:16;;;;;;;5.60;2.33;;;30.10;99.90;;;;;;5017556;28;20021;-47
2022/07/15 05:29:42;;;;;;;3.95;1.73;;;30.10;99.90;;;;;;5017823;28;20026;-46
2022/07/15 05:32:08;;;;;;;6.53;1.90;;;30.00;99.90;;;;;;5016994;28;20033;-46
2022/07/15 05:34:34;;;;;;;3.70;1.73;;;30.10;99.90;;;;;;5017552;28;20072;-46
2022/07/15 05:37:00;;;;;;;8.68;2.15;;;30.10;99.90;;;;;;5017799;28;20506;-47
2022/07/15 05:39:26;;;;;;;5.93;2.25;;;30.10;99.90;;;;;;5017581;28;20144;-47
2022/07/15 05:41:52;;;;;;;5.03;2.97;;;30.00;99.90;;;;;;5017572;28;20105;-47
2022/07/15 05:44:18;;;;;;;5.22;2.20;;;30.00;99.90;;;;;;5017772;28;20573;-46
2022/07/15 05:46:43;;;;;;;7.30;2.33;;;30.10;99.90;;;;;;5017890;28;20064;-47
2022/07/15 05:49:10;;;;;;;4.28;2.25;;;30.10;99.90;;;;;;5017759;28;20029;-46
2022/07/15 05:51:36;;;;;;;12.82;3.28;;;30.10;99.90;;;;;;5017600;28;20192;-47
2022/07/15 05:54:02;;;;;;;6.68;2.20;;;30.10;99.90;;;;;;4999972;28;20084;-47
2022/07/15 05:56:28;;;;;;;4.35;2.00;;;30.10;99.90;;;;;;5017665;28;20080;-47
2022/07/15 05:58:54;;;;;;;4.70;1.95;;;30.10;99.90;;;;;;5017622;28;20506;-48
2022/07/15 06:01:21;;;;;;;4.00;2.35;;;30.10;99.90;;;;;;5017511;28;20062;-47
2022/07/15 06:03:47;;;;;;;4.27;2.40;;;30.10;99.90;;;;;;5017645;28;20080;-47
2022/07/15 06:06:13;;;;;;;5.53;2.45;;;30.10;99.90;;;;;;5017693;28;20025;-48
2022/07/15 06:08:39;;;;;;;5.10;1.83;;;30.00;99.90;;;;;;5017234;28;20030;-48
2022/07/15 06:11:05;;;;;;;5.22;2.38;;;30.10;99.90;;;;;;5017412;28;20032;-48
2022/07/15 06:13:30;;;;;;;4.35;1.88;;;30.10;99.90;;;;;;5017348;28;20072;-48
2022/07/15 06:15:56;;;;;;;5.05;2.10;;;30.10;99.90;;;;;;5017326;28;20030;-47
2022/07/15 06:18:22;;;;;;;4.80;1.98;;;30.10;99.90;;;;;;5017402;28;20080;-48
2022/07/15 06:20:48;;;;;;;3.55;1.55;;;30.10;99.90;;;;;;5017140;28;20056;-47
2022/07/15 06:23:14;;;;;;;4.40;2.00;;;30.10;99.90;;;;;;5017420;28;20049;-47
2022/07/15 06:25:40;;;;;;;4.72;2.00;;;30.00;99.90;;;;;;5017237;28;20537;-48
2022/07/15 06:28:07;;;;;;;5.90;2.00;;;30.10;99.90;;;;;;5016451;28;20487;-47
2022/07/15 06:30:33;;;;;;;5.13;2.00;;;30.10;99.90;;;;;;5017142;28;20026;-47
2022/07/15 06:32:59;;;;;;;2.85;1.70;;;30.10;99.90;;;;;;5017059;28;20045;-48
2022/07/15 06:35:24;;;;;;;4.72;2.42;;;30.10;99.90;;;;;;5014389;28;20034;-47
2022/07/15 06:37:51;;;;;;;6.00;2.00;;;30.10;99.90;;;;;;5014057;28;20030;-47
2022/07/15 06:40:17;;;;;;;5.63;2.63;;;30.10;99.90;;;;;;5014230;28;20042;-47
2022/07/15 06:42:44;;;;;;;7.68;3.75;;;30.10;99.90;;;;;;5014149;28;20037;-48
2022/07/15 06:45:10;;;;;;;6.72;3.58;;;30.10;99.90;;;;;;5013980;28;20029;-48
2022/07/15 06:47:39;;;;;;;9.55;3.65;;;30.10;99.90;;;;;;5013863;28;20373;-47
2022/07/15 06:50:05;;;;;;;4.90;3.40;;;30.10;99.90;;;;;;5013816;28;20034;-47
2022/07/15 06:52:31;;;;;;;8.57;4.10;;;30.20;99.90;;;;;;4996033;28;20128;-47
2022/07/15 06:54:57;;;;;;;6.75;4.15;;;30.20;99.90;;;;;;5013586;28;20157;-48
2022/07/15 06:57:23;;;;;;;10.43;4.32;;;30.20;99.90;;;;;;5013472;28;20475;-47
2022/07/15 06:59:48;;;;;;;7.38;4.60;;;30.20;99.90;;;;;;5013625;28;20034;-47
2022/07/15 07:02:14;;;;;;;9.02;3.85;;;30.20;99.90;;;;;;5013800;28;20022;-47
2022/07/15 07:04:42;;;;;;;11.10;3.60;;;30.20;99.90;;;;;;4995907;28;20041;-48
2022/07/15 07:07:08;;;;;;;13.63;3.42;;;30.20;99.90;;;;;;4995786;28;20189;-47
2022/07/15 07:09:33;;;;;;;6.28;3.90;;;30.20;99.90;;;;;;5013631;28;20645;-48
2022/07/15 07:11:59;;;;;;;11.55;4.30;;;30.20;99.90;;;;;;5013278;28;20010;-47
2022/07/15 07:14:26;;;;;;;6.30;3.63;;;30.20;99.90;;;;;;5011982;28;20482;-48
2022/07/15 07:16:52;;;;;;;8.52;3.90;;;30.20;99.90;;;;;;5013134;28;20431;-47
2022/07/15 07:19:18;;;;;;;8.52;3.70;;;30.20;99.90;;;;;;5013308;28;20092;-47
2022/07/15 07:21:43;;;;;;;6.45;3.17;;;30.20;99.90;;;;;;5013237;28;20069;-48
2022/07/15 07:24:09;;;;;;;4.50;2.90;;;30.20;99.90;;;;;;5013017;28;20392;-47
2022/07/15 07:26:35;;;;;;;6.55;3.17;;;30.20;99.90;;;;;;5012961;28;20092;-47
2022/07/15 07:29:01;;;;;;;9.32;3.38;;;30.20;99.90;;;;;;5013050;28;20032;-48
2022/07/15 07:31:27;;;;;;;3.22;2.40;;;30.20;99.90;;;;;;5012786;28;20394;-47
2022/07/15 07:33:57;;;;;;;4.40;3.13;;;30.30;99.90;;;;;;5012889;28;20110;-48
2022/07/15 07:36:23;;;;;;;6.30;2.70;;;30.30;99.90;;;;;;5012873;28;20064;-47
2022/07/15 07:38:49;;;;;;;5.10;2.67;;;30.20;99.90;;;;;;5012959;28;20383;-47
2022/07/15 07:41:15;;;;;;;4.20;2.33;;;30.30;99.90;;;;;;5012951;28;20052;-47
2022/07/15 07:43:41;;;;;;;4.75;2.05;;;30.30;99.90;;;;;;5012743;28;20022;-48
2022/07/15 07:46:07;;;;;;;6.72;2.10;;;30.30;99.90;;;;;;5012182;28;20026;-47
2022/07/15 07:48:33;;;;;;;5.80;2.10;;;30.30;99.90;;;;;;5012616;28;20080;-47
2022/07/15 07:50:58;;;;;;;5.93;2.67;;;30.30;99.90;;;;;;5012477;28;20041;-47
2022/07/15 07:53:24;;;;;;;3.83;2.75;;;30.30;99.90;;;;;;5012246;28;20058;-48
2022/07/15 07:55:50;;;;;;;4.60;2.65;;;30.30;99.90;;;;;;4995023;28;20036;-48
2022/07/15 07:58:18;;;;;;;4.72;2.40;;;30.30;99.90;;;;;;5012416;28;20026;-48
2022/07/15 08:00:44;;;;;;;4.65;2.55;;;30.30;99.90;;;;;;5010411;28;20061;-46
2022/07/15 08:03:12;;;;;;;5.65;2.42;;;30.30;99.90;;;;;;5011407;28;20030;-47
2022/07/15 08:05:38;;;;;;;3.25;2.30;;;30.30;99.90;;;;;;4991643;28;20034;-48
2022/07/15 08:08:09;;;;;;;3.92;2.08;;;30.30;99.90;;;;;;4990823;28;20030;-48
2022/07/15 08:10:35;;;;;;;4.35;1.90;;;30.30;99.90;;;;;;4990994;28;20030;-47
2022/07/15 08:13:01;;;;;;;6.63;2.20;;;30.30;99.90;;;;;;4990852;28;20080;-48
2022/07/15 08:15:27;;;;;;;4.85;1.85;;;30.30;99.90;;;;;;4990652;28;20045;-48
2022/07/15 08:17:53;;;;;;;6.43;1.92;;;30.30;99.90;;;;;;4990883;28;20484;-48
2022/07/15 08:20:19;;;;;;;4.28;1.77;;;30.30;99.90;;;;;;4990706;28;20161;-47
2022/07/15 08:22:44;;;;;;;3.53;2.42;;;30.30;99.90;;;;;;4990485;28;20117;-47
2022/07/15 08:25:11;;;;;;;5.70;2.28;;;30.30;99.90;;;;;;4990343;28;20496;-47
2022/07/15 08:27:37;;;;;;;4.82;1.73;;;30.30;99.90;;;;;;4990307;28;20074;-47
2022/07/15 08:30:03;;;;;;;1.80;1.50;;;30.30;99.90;;;;;;4973116;28;20484;-47
2022/07/15 08:32:29;;;;;;;3.05;1.55;;;30.30;99.90;;;;;;4990397;28;20018;-47
2022/07/15 08:34:54;;;;;;;4.03;1.42;;;30.40;99.90;;;;;;4991868;28;20026;-48
2022/07/15 08:37:20;;;;;;;4.13;1.60;;;30.40;99.90;;;;;;4992117;28;20437;-47
2022/07/15 08:39:46;;;;;;;10.40;2.00;;;30.30;99.90;;;;;;4992044;28;20434;-47
2022/07/15 08:42:13;;;;;;;4.72;2.20;;;30.40;99.90;;;;;;5001324;28;20038;-48
2022/07/15 08:44:40;;;;;;;3.60;1.88;;;30.40;99.90;;;;;;5009291;28;20021;-49
2022/07/15 08:47:06;;;;;;;3.58;2.28;;;30.40;99.90;;;;;;5007955;28;20030;-48
2022/07/15 08:49:33;;;;;;;5.35;2.00;;;30.40;99.90;;;;;;5011020;28;20080;-48
2022/07/15 08:52:01;;;;;;;4.53;1.70;;;30.40;99.90;;;;;;5011294;28;20025;-53
2022/07/15 08:54:27;;;;;;;4.28;3.15;;;30.40;99.90;;;;;;5011110;28;20038;-47
2022/07/15 08:56:53;;;;;;;3.90;2.08;;;30.40;99.90;;;;;;5011161;28;20038;-47
2022/07/15 08:59:19;;;;;;;10.75;5.13;;;30.40;99.90;;;;;;4989322;28;20026;-48
2022/07/15 09:01:48;;;;;;;5.13;2.92;;;30.40;99.90;;;;;;5011249;28;20030;-48
2022/07/15 09:04:15;;;;;;;5.85;2.70;;;30.40;99.90;;;;;;5010828;28;20026;-48
2022/07/15 09:06:44;;;;;;;3.22;2.35;;;30.40;99.90;;;;;;5009711;28;20472;-47
2022/07/15 09:09:23;;;;;;;2.95;2.28;;;30.50;99.90;;;;;;5011103;28;20125;-48
2022/07/15 09:11:57;;;;;;;6.68;3.40;;;30.50;99.90;;;;;;5010844;28;20033;-47
2022/07/15 09:14:28;;;;;;;3.55;2.20;;;30.50;99.90;;;;;;5011362;28;20476;-48
2022/07/15 09:17:08;;;;;;;2.65;2.08;;;30.50;99.90;;;;;;5011328;28;20050;-47
2022/07/15 09:20:06;;;;;;;2.83;1.95;;;30.50;99.90;;;;;;5010575;28;20058;-47
2022/07/15 09:22:46;;;;;;;5.55;2.50;;;30.50;99.90;;;;;;5001918;28;20387;-48
2022/07/15 09:25:12;;;;;;;7.80;2.38;;;30.50;99.90;;;;;;5010019;28;20050;-47
2022/07/15 09:27:41;;;;;;;3.58;2.03;;;30.50;99.90;;;;;;5010836;28;20386;-47
2022/07/15 09:36:25;;;;;;;4.38;2.75;;;30.60;99.90;;;;;;5000732;28;20041;-58
2022/07/15 09:38:54;;;;;;;6.82;2.03;;;30.60;99.90;;;;;;4993458;28;20030;-49
2022/07/15 09:41:25;;;;;;;3.15;1.90;;;30.60;99.90;;;;;;5010858;28;20105;-49
2022/07/15 09:44:20;;;;;;;6.45;1.40;;;30.70;99.90;;;;;;5010934;28;20049;-48
2022/07/15 09:46:52;;;;;;;4.00;2.33;;;30.70;99.90;;;;;;5010042;28;20046;-48
2022/07/15 09:49:24;;;;;;;5.55;2.78;;;30.70;99.90;;;;;;5010583;28;20018;-48
2022/07/15 09:52:07;;;;;;;3.38;2.40;;;30.70;99.90;;;;;;5010101;28;20030;-48
2022/07/15 09:54:48;;;;;;;8.70;3.55;;;30.70;99.90;;;;;;4993225;28;20022;-49
2022/07/15 09:57:16;;;;;;;5.57;3.15;;;30.70;99.90;;;;;;4993434;28;20026;-48
2022/07/15 09:59:46;;;;;;;5.05;2.58;;;30.70;99.90;;;;;;5009944;28;20073;-48
2022/07/15 10:02:12;;;;;;;3.20;2.72;;;30.70;99.90;;;;;;4998884;28;20072;-48
2022/07/15 10:04:39;;;;;;;3.17;2.80;;;30.70;99.90;;;;;;5010596;28;20056;-48
2022/07/15 10:07:05;;;;;;;2.55;2.25;;;30.70;99.90;;;;;;5007195;28;20068;-49
2022/07/15 10:09:34;;;;;;;3.63;2.55;;;30.70;99.90;;;;;;5007093;28;20476;-48
2022/07/15 10:12:24;;;;;;;2.92;2.53;;;30.70;99.90;;;;;;5014307;28;20152;-48
2022/07/15 10:15:25;;;;;;;3.65;3.08;;;30.70;99.90;;;;;;5014467;28;20479;-50
2022/07/15 10:18:30;;;;;;;8.00;4.57;;;30.70;99.90;;;;;;4960468;28;20054;-47
2022/07/15 10:21:19;;;;;;;23.00;9.07;;;30.80;99.90;;;;;;5014333;28;20081;-46
2022/07/15 10:24:12;;;;;;;14.57;6.85;;;30.80;99.90;;;;;;5001322;28;20454;-47
2022/07/15 10:26:51;;;;;;;9.88;4.10;;;30.70;99.90;;;;;;5014050;28;20022;-46
2022/07/15 10:29:17;;;;;;;6.50;3.47;;;30.70;99.90;;;;;;5014164;28;20368;-48
2022/07/15 10:31:44;;;;;;;4.63;3.50;;;30.70;99.90;;;;;;5013901;28;20037;-46
2022/07/15 10:34:12;;;;;;;6.93;3.63;;;30.80;99.90;;;;;;5014069;28;20026;-46
2022/07/15 10:36:52;;;;;;;5.40;3.17;;;30.80;99.90;;;;;;5014045;28;20105;-46
2022/07/15 10:39:20;;;;;;;5.38;3.10;;;30.80;99.90;;;;;;5014146;28;20025;-46
2022/07/15 10:41:59;;;;;;;17.83;6.32;;;30.80;99.90;;;;;;4996318;28;20033;-47
2022/07/15 10:44:29;;;;;;;10.50;4.45;;;30.80;99.90;;;;;;5014038;28;20383;-46
2022/07/15 10:47:13;;;;;;;6.25;3.53;;;30.80;99.90;;;;;;5013672;28;20041;-47
2022/07/15 10:49:43;;;;;;;6.63;2.65;;;30.80;99.90;;;;;;5013908;28;20160;-47
2022/07/15 10:52:16;;;;;;;3.00;2.58;;;30.90;99.90;;;;;;5013779;28;20079;-47
2022/07/15 10:54:49;;;;;;;3.97;1.85;;;30.80;99.90;;;;;;5013565;28;20136;-47
2022/07/15 10:57:17;;;;;;;6.18;2.15;;;30.90;99.90;;;;;;5013679;28;20022;-47
2022/07/15 10:59:55;;;;;;;11.30;5.63;;;30.90;99.90;;;;;;5013571;28;20042;-46
2022/07/15 11:02:22;;;;;;;7.25;3.70;;;30.90;99.90;;;;;;5013477;28;20030;-47
2022/07/15 11:04:49;;;;;;;4.40;3.33;;;30.90;99.90;;;;;;5013573;28;20014;-47
2022/07/15 11:07:15;;;;;;;5.10;2.83;;;31.00;99.90;;;;;;5013441;28;20507;-46
2022/07/15 11:09:57;;;;;;;2.90;2.20;;;30.90;99.90;;;;;;5013395;28;20086;-46
2022/07/15 11:12:31;;;;;;;2.90;2.15;;;31.00;99.90;;;;;;5013361;28;20022;-46
2022/07/15 11:15:09;;;;;;;3.33;2.15;;;31.00;99.90;;;;;;5013310;28;20053;-46
2022/07/15 11:17:35;;;;;;;2.95;1.88;;;31.00;99.90;;;;;;5013357;28;20034;-46
2022/07/15 11:20:11;;;;;;;5.18;2.47;;;31.00;99.90;;;;;;5012949;28;20022;-46
2022/07/15 11:22:45;;;;;;;2.92;1.98;;;31.00;99.90;;;;;;5013083;28;20113;-46
2022/07/15 11:25:37;;;;;;;9.85;3.58;;;31.00;99.90;;;;;;5013176;28;20067;-46
2022/07/15 11:28:07;;;;;;;4.47;2.50;;;31.00;99.90;;;;;;5013581;28;20076;-46
2022/07/15 11:30:39;;;;;;;5.78;2.08;;;31.10;99.90;;;;;;5011861;28;20018;-46
2022/07/15 11:33:11;;;;;;;3.33;1.73;;;31.10;99.90;;;;;;5010863;28;20104;-47
2022/07/15 11:35:45;;;;;;;7.35;2.15;;;31.10;99.90;;;;;;5010790;28;20068;-47
2022/07/15 11:38:11;;;;;;;3.65;2.35;;;31.10;99.90;;;;;;5010867;28;20088;-47
2022/07/15 11:46:12;;;;;;;1.98;1.15;;;31.20;99.90;;;;;;5013093;28;20032;-47
2022/07/15 11:48:38;;;;;;;2.83;1.25;;;31.20;99.90;;;;;;5012808;28;20021;-46
2022/07/15 11:51:06;;;;;;;8.02;1.30;;;31.20;99.90;;;;;;5012997;28;20030;-47
2022/07/15 11:53:38;;;;;;;1.73;1.25;;;31.20;99.90;;;;;;5011073;28;20105;-47
2022/07/15 11:56:04;;;;;;;3.40;1.48;;;31.20;99.90;;;;;;5012561;28;20041;-46
2022/07/15 11:58:39;;;;;;;4.60;1.40;;;31.20;99.90;;;;;;5012640;28;20040;-47
2022/07/15 12:01:14;;;;;;;3.60;1.27;;;31.20;99.90;;;;;;5012358;28;20084;-47
2022/07/15 12:03:45;;;;;;;2.83;1.50;;;31.30;99.90;;;;;;5012348;28;20022;-47
2022/07/15 12:06:16;;;;;;;3.90;1.23;;;31.20;99.90;;;;;;5011115;28;20498;-47
2022/07/15 12:08:44;;;;;;;5.50;1.63;;;31.30;99.90;;;;;;5009612;28;20498;-47
2022/07/15 12:11:34;;;;;;;2.00;1.45;;;31.30;99.90;;;;;;5011154;28;20030;-46
2022/07/15 12:14:13;;;;;;;3.38;1.40;;;31.30;99.90;;;;;;5011990;28;20109;-47
2022/07/15 12:16:39;;;;;;;3.15;1.83;;;31.30;99.90;;;;;;5003192;28;20065;-47
2022/07/15 12:19:09;;;;;;;2.20;1.42;;;31.30;99.90;;;;;;5006710;28;20088;-47
2022/07/15 12:21:39;;;;;;;2.72;1.27;;;31.30;99.90;;;;;;5010678;28;20044;-47
2022/07/15 12:24:18;;;;;;;3.55;1.70;;;31.30;99.90;;;;;;5011494;28;20052;-47
2022/07/15 12:26:49;;;;;;;3.40;1.45;;;31.40;99.90;;;;;;5011376;28;20022;-47
2022/07/15 12:29:26;;;;;;;4.70;1.55;;;31.40;99.90;;;;;;5010648;28;20030;-47
2022/07/15 12:32:10;;;;;;;4.13;1.42;;;31.40;99.90;;;;;;5010507;28;20030;-47
2022/07/15 12:34:52;;;;;;;1.95;1.30;;;31.40;99.90;;;;;;5010246;28;20487;-47
2022/07/15 12:37:27;;;;;;;2.85;1.42;;;31.40;99.90;;;;;;5010808;28;20087;-47
2022/07/15 12:40:05;;;;;;;2.05;1.33;;;31.40;99.90;;;;;;5011484;28;20014;-47
2022/07/15 12:42:49;;;;;;;1.65;1.30;;;31.40;99.90;;;;;;5011353;28;20053;-46
2022/07/15 12:45:21;;;;;;;1.55;1.45;;;31.40;99.90;;;;;;5011367;28;20025;-46
2022/07/15 12:48:03;;;;;;;2.92;1.40;;;31.40;99.90;;;;;;5009470;28;20038;-47
2022/07/15 12:50:34;;;;;;;3.08;1.27;;;31.40;99.90;;;;;;5009819;28;20030;-47
2022/07/15 12:53:01;;;;;;;1.83;1.35;;;31.50;99.90;;;;;;5009730;28;20029;-47
2022/07/15 12:55:32;;;;;;;2.03;1.57;;;31.50;99.90;;;;;;5009599;28;20100;-47
2022/07/15 12:58:06;;;;;;;3.33;1.08;;;31.50;99.90;;;;;;5009696;28;20026;-47
2022/07/15 13:00:33;;;;;;;1.52;1.30;;;31.50;99.90;;;;;;5010057;28;20482;-47
2022/07/15 13:03:00;;;;;;;1.35;1.17;;;31.50;99.90;;;;;;5008823;28;20475;-46
2022/07/15 13:05:29;;;;;;;1.50;0.98;;;31.50;99.90;;;;;;5010181;28;20029;-46
2022/07/15 13:07:54;;;;;;;4.88;1.55;;;31.50;99.90;;;;;;5006357;28;20034;-48